METAR Data
IDs: Format: Raw Decoded Include TAF

Data at: 0107 UTC 06 Dec 2019

KEWB 060053Z 29016G24KT 10SM CLR 02/M09 A2985 RMK AO2 PK WND 30029/0029 SLP109 T00171089
KEWB 052353Z 27013G19KT 10SM BKN075 03/M07 A2983 RMK AO2 SLP102 T00281072 10061 20028 51041
KEWB 052253Z 28009KT 10SM BKN075 03/M06 A2981 RMK AO2 SLP093 T00281061
KEWB 052153Z 28009KT 10SM OVC055 04/M06 A2975 RMK AO2 SLP075 T00391061
KEWB 052053Z 29011G20KT 10SM OVC055 05/M06 A2971 RMK AO2 SLP061 T00501061 53032
KEWB 051953Z 28016G22KT 10SM BKN050 05/M05 A2967 RMK AO2 SLP047 T00501050
KEWB 051853Z 29014G22KT 10SM CLR 06/M05 A2964 RMK AO2 SLP038 T00561050
KEWB 051753Z 28012G20KT 10SM CLR 06/M04 A2961 RMK AO2 SLP028 T00561039 10061 21017 53001
KEWB 051653Z 28015G20KT 10SM CLR 06/M03 A2961 RMK AO2 SLP027 T00561028
KEWB 051553Z 30013G20KT 10SM CLR 06/M02 A2961 RMK AO2 SLP027 T00561022
KEWB 051453Z 28010KT 10SM CLR 04/M02 A2961 RMK AO2 SLP027 T00391017 53018
KEWB 051353Z 28009KT 10SM CLR 02/M02 A2959 RMK AO2 SLP020 T00221017
KEWB 051253Z 26004KT 8SM BKN070 M01/M02 A2958 RMK AO2 SLP016 T10061022
KEWB 051153Z 24004KT 9SM FEW075 BKN100 M01/M03 A2956 RMK AO2 SLP009 I1000 I6001 T10111028 11011 21033 53021
KEWB 051053Z AUTO 27004KT 8SM CLR M01/M03 A2954 RMK AO2 SLP002 I1000 T10111028
KEWB 050953Z AUTO 00000KT 5SM BR SCT100 M02/M03 A2951 RMK AO2 SLP992 T10171028
KEWB 050901Z AUTO 00000KT 3SM BR SCT100 M03/M04 A2950 RMK AO2 T10331044
KEWB 050853Z AUTO 00000KT 1 1/4SM BR FEW110 M03/M04 A2950 RMK AO2 VIS 3/4V3 SLP989 I1001 I3001 T10281044 53007
KEWB 050835Z AUTO 00000KT 3/4SM R05/P6000FT BR FEW110 M03/M04 A2949 RMK AO2 I1000 T10281039
KEWB 050824Z AUTO 00000KT 3/4SM R05/P6000FT BR VV002 M03/M03 A2949 RMK AO2 I1000 T10281033
KEWB 050816Z AUTO 00000KT 2SM BR CLR M02/M03 A2949 RMK AO2 I1000 T10221033
KEWB 050753Z AUTO 00000KT 3SM BR BKN090 M02/M03 A2949 RMK AO2 SLP985 I1000 T10221033
KEWB 050739Z AUTO 14003KT 3SM BR OVC090 M03/M04 A2948 RMK AO2 I1000 T10281039
KEWB 050734Z AUTO 15003KT 1 3/4SM BR FEW002 OVC090 M03/M03 A2948 RMK AO2 VIS 3/4V3 I1000 T10281033
KEWB 050727Z AUTO 00000KT 3/4SM R05/P6000FT BR FEW002 OVC095 M02/M03 A2948 RMK AO2 I1000 T10221033
KEWB 050700Z AUTO 00000KT 1/4SM R05/P6000FT FZFG FEW002 SCT080 SCT120 M02/M03 A2948 RMK AO2 T10171028
KEWB 050653Z AUTO 00000KT 3/4SM R05/P6000FT BR FEW120 M02/M03 A2948 RMK AO2 SLP983 T10221033
KEWB 050633Z AUTO 00000KT 1/2SM R05/P6000FT FZFG CLR M03/M04 A2948 RMK AO2 T10281039
KEWB 050618Z AUTO 00000KT 1/2SM R05/P6000FT FZFG VV002 M02/M03 A2947 RMK AO2 T10221033
KEWB 050606Z AUTO 00000KT 1/4SM R05/P6000FT FZFG CLR M02/M04 A2947 RMK AO2 T10221039
KEWB 050557Z AUTO 00000KT 1 3/4SM BR CLR M02/M03 A2947 RMK AO2 T10171033
KEWB 050553Z AUTO 00000KT 5SM BR CLR M02/M03 A2948 RMK AO2 SLP981 T10171033 10022 21017 58001
KEWB 050453Z AUTO 28004KT 10SM CLR M01/M03 A2948 RMK AO2 SLP982 T10061028 400391056
KEWB 050353Z AUTO 27005KT 10SM FEW055 01/M02 A2948 RMK AO2 SLP984 T00111022
KEWB 050253Z 25005KT 10SM OVC047 02/M02 A2948 RMK AO2 SLP983 T00171017 55002
KEWB 050153Z 00000KT 10SM OVC043 02/M02 A2947 RMK AO2 SLP980 T00171017
KEWB 050053Z 26006KT 10SM OVC039 02/M02 A2948 RMK AO2 SLP985 T00221017
KEWB 042353Z 24006KT 10SM OVC041 02/M01 A2948 RMK AO2 SLP985 T00221011 10039 20006 51006
KEWB 042253Z 00000KT 10SM OVC044 01/M01 A2948 RMK AO2 SLP984 T00061006
KEWB 042153Z 00000KT 10SM OVC047 01/M01 A2947 RMK AO2 SLP981 T00111006
KEWB 042053Z 00000KT 10SM OVC050 03/M02 A2947 RMK AO2 SLP979 T00281017 55007
KEWB 041953Z 00000KT 10SM OVC055 03/M02 A2947 RMK AO2 SLP979 T00331022
KEWB 041853Z 28003KT 10SM OVC055 03/M02 A2948 RMK AO2 SLP982 T00331022
KEWB 041753Z 27009KT 10SM BKN070 03/M02 A2949 RMK AO2 SLP986 T00331022 10033 21056 58018
KEWB 041653Z 27007KT 10SM OVC080 02/M03 A2951 RMK AO2 SLP992 T00221028
KEWB 041553Z 25007KT 10SM CLR 02/M03 A2953 RMK AO2 SLP000 T00221028
KEWB 041453Z 24005KT 10SM CLR 01/M03 A2954 RMK AO2 SLP004 T00111033 50002
KEWB 041353Z 20004KT 10SM FEW090 M02/M05 A2954 RMK AO2 SLP004 T10221050